Time;durP1;ratioP1;P1;durP2;ratioP2;P2;SDS_P1;SDS_P2;PMS_P1;PMS_P2;Temp;Humidity;BMP_temperature;BMP_pressure;BME280_temperature;BME280_humidity;BME280_pressure;Samples;Min_cycle;Max_cycle;Signal;HPM_P1;HPM_P2
2021/01/13 00:02:26;;;;;;;;;;;3.80;76.70;;;;;;4981019;28;19926;-76
2021/01/13 00:04:52;;;;;;;;;;;3.80;76.60;;;;;;4979759;28;19930;-76
2021/01/13 00:07:19;;;;;;;;;;;3.80;76.70;;;;;;4966422;28;19937;-76
2021/01/13 00:09:45;;;;;;;;;;;3.80;76.70;;;;;;4968780;28;19930;-76
2021/01/13 00:12:11;;;;;;;;;;;3.80;76.60;;;;;;4969037;28;20216;-76
2021/01/13 00:14:37;;;;;;;;;;;3.80;76.70;;;;;;4979162;28;20336;-76
2021/01/13 00:17:05;;;;;;;;;;;3.70;76.80;;;;;;4982798;28;20362;-76
2021/01/13 00:19:32;;;;;;;;;;;3.70;76.80;;;;;;4978964;28;19933;-76
2021/01/13 00:21:58;;;;;;;;;;;3.70;76.80;;;;;;4981802;28;20302;-76
2021/01/13 00:24:24;;;;;;;;;;;3.70;76.80;;;;;;4951593;28;20233;-76
2021/01/13 00:26:55;;;;;;;;;;;3.70;76.70;;;;;;4983974;28;19926;-76
2021/01/13 00:29:22;;;;;;;;;;;3.70;76.70;;;;;;4983762;28;19934;-76
2021/01/13 00:31:48;;;;;;;;;;;3.60;76.80;;;;;;4982535;28;19933;-76
2021/01/13 00:34:15;;;;;;;;;;;3.60;76.80;;;;;;4986557;28;19929;-76
2021/01/13 00:36:43;;;;;;;;;;;3.60;76.80;;;;;;4988030;28;19926;-76
2021/01/13 00:39:10;;;;;;;;;;;3.50;76.80;;;;;;4972792;28;20026;-76
2021/01/13 00:41:37;;;;;;;;;;;3.50;76.80;;;;;;4982300;28;19934;-76
2021/01/13 00:44:03;;;;;;;;;;;3.50;76.60;;;;;;4987945;28;19926;-76
2021/01/13 00:46:34;;;;;;;;;;;3.50;76.50;;;;;;4986970;28;20286;-76
2021/01/13 00:49:02;;;;;;;;;;;3.40;76.50;;;;;;4987458;28;19929;-76
2021/01/13 00:51:31;;;;;;;;;;;3.40;76.70;;;;;;4984263;28;19932;-76
2021/01/13 00:53:57;;;;;;;;;;;3.30;76.80;;;;;;4970127;28;19926;-76
2021/01/13 00:56:24;;;;;;;;;;;3.30;76.90;;;;;;4969954;28;19932;-76
2021/01/13 00:58:55;;;;;;;;;;;3.30;77.00;;;;;;4985611;28;20012;-76
2021/01/13 01:01:23;;;;;;;;;;;3.30;77.20;;;;;;4966837;28;19933;-76
2021/01/13 01:03:49;;;;;;;;;;;3.20;77.30;;;;;;4982833;28;19969;-76
2021/01/13 01:06:16;;;;;;;;;;;3.20;77.60;;;;;;4987776;28;19956;-76
2021/01/13 01:08:44;;;;;;;;;;;3.20;77.80;;;;;;4985337;28;19953;-76
2021/01/13 01:11:11;;;;;;;;;;;3.20;78.00;;;;;;4985852;28;19941;-76
2021/01/13 01:13:37;;;;;;;;;;;3.20;78.10;;;;;;4972615;28;19933;-76
2021/01/13 01:16:03;;;;;;;;;;;3.20;78.10;;;;;;4988261;28;20282;-76
2021/01/13 01:18:30;;;;;;;;;;;3.20;78.10;;;;;;4970149;28;19926;-76
2021/01/13 01:20:56;;;;;;;;;;;3.10;78.30;;;;;;4969006;28;19926;-76
2021/01/13 01:23:22;;;;;;;;;;;3.10;78.50;;;;;;5001553;28;19936;-76
2021/01/13 01:25:49;;;;;;;;;;;3.10;78.60;;;;;;4989411;28;19944;-75
2021/01/13 01:28:15;;;;;;;;;;;3.10;78.50;;;;;;4974067;28;19933;-76
2021/01/13 01:30:41;;;;;;;;;;;3.10;78.50;;;;;;4966408;28;20561;-76
2021/01/13 01:33:07;;;;;;;;;;;3.10;78.70;;;;;;4983527;28;20436;-76
2021/01/13 01:35:34;;;;;;;;;;;3.10;78.70;;;;;;4979195;28;20017;-76
2021/01/13 01:38:00;;;;;;;;;;;3.10;78.80;;;;;;4983956;28;21070;-76
2021/01/13 01:40:27;;;;;;;;;;;3.10;78.70;;;;;;4981446;28;19972;-76
2021/01/13 01:42:54;;;;;;;;;;;3.10;78.80;;;;;;4986290;28;21814;-76
2021/01/13 01:45:24;;;;;;;;;;;3.10;78.90;;;;;;4982584;28;19945;-76
2021/01/13 01:47:54;;;;;;;;;;;3.10;79.10;;;;;;4979576;28;19930;-76
2021/01/13 01:50:21;;;;;;;;;;;3.10;79.20;;;;;;4981365;28;19930;-76
2021/01/13 01:52:54;;;;;;;;;;;3.10;79.20;;;;;;4966640;28;19934;-76
2021/01/13 01:55:24;;;;;;;;;;;3.10;79.30;;;;;;4984672;28;19950;-76
2021/01/13 01:57:55;;;;;;;;;;;3.10;79.20;;;;;;4987657;28;19933;-76
2021/01/13 02:00:30;;;;;;;;;;;3.10;79.10;;;;;;4975514;28;19964;-76
2021/01/13 02:03:03;;;;;;;;;;;3.10;79.10;;;;;;4979560;28;19926;-76
2021/01/13 02:05:29;;;;;;;;;;;3.10;79.00;;;;;;4984989;28;20627;-76
2021/01/13 02:08:00;;;;;;;;;;;3.10;79.10;;;;;;4987173;28;20285;-76
2021/01/13 02:10:26;;;;;;;;;;;3.10;79.20;;;;;;4983795;28;20301;-75
2021/01/13 02:12:52;;;;;;;;;;;3.10;79.10;;;;;;4985603;28;19929;-76
2021/01/13 02:15:19;;;;;;;;;;;3.00;79.30;;;;;;4984940;28;19926;-76
2021/01/13 02:17:52;;;;;;;;;;;3.10;79.30;;;;;;4970314;28;19926;-76
2021/01/13 02:20:23;;;;;;;;;;;3.10;79.30;;;;;;4982851;28;20004;-76
2021/01/13 02:22:54;;;;;;;;;;;3.10;79.30;;;;;;4976041;28;19946;-76
2021/01/13 02:25:29;;;;;;;;;;;3.10;79.10;;;;;;4984560;28;19933;-75
2021/01/13 02:28:01;;;;;;;;;;;3.10;79.00;;;;;;4975938;28;20008;-76
2021/01/13 02:30:48;;;;;;;;;;;3.00;79.20;;;;;;4980395;28;19940;-76
2021/01/13 02:33:26;;;;;;;;;;;3.00;79.20;;;;;;4954086;28;19925;-76
2021/01/13 02:35:55;;;;;;;;;;;3.00;79.00;;;;;;4985980;28;19937;-76
2021/01/13 02:38:23;;;;;;;;;;;3.00;79.10;;;;;;4978289;28;19930;-76
2021/01/13 02:40:49;;;;;;;;;;;3.00;78.90;;;;;;4980848;28;19941;-76
2021/01/13 02:43:18;;;;;;;;;;;3.00;78.90;;;;;;4982138;28;20017;-76
2021/01/13 02:45:45;;;;;;;;;;;3.00;78.90;;;;;;4977496;28;19926;-76
2021/01/13 02:48:13;;;;;;;;;;;3.00;78.90;;;;;;4985507;28;19992;-76
2021/01/13 02:50:40;;;;;;;;;;;3.00;78.90;;;;;;4980659;28;19936;-76
2021/01/13 02:53:09;;;;;;;;;;;3.00;78.90;;;;;;4983938;28;19930;-76
2021/01/13 02:55:48;;;;;;;;;;;3.00;78.90;;;;;;4980925;28;19937;-76
2021/01/13 02:58:31;;;;;;;;;;;3.00;78.80;;;;;;4976323;28;19948;-76
2021/01/13 03:00:59;;;;;;;;;;;3.00;78.80;;;;;;4978920;28;19940;-76
2021/01/13 03:03:28;;;;;;;;;;;3.00;78.80;;;;;;4982703;28;19930;-76
2021/01/13 03:05:56;;;;;;;;;;;2.90;78.70;;;;;;4963263;28;19934;-76
2021/01/13 03:08:29;;;;;;;;;;;2.90;78.90;;;;;;4976226;28;19936;-76
2021/01/13 03:10:55;;;;;;;;;;;2.90;78.80;;;;;;4965852;28;19934;-76
2021/01/13 03:13:30;;;;;;;;;;;2.90;78.80;;;;;;4972778;28;19926;-76
2021/01/13 03:15:56;;;;;;;;;;;3.00;78.90;;;;;;5000561;28;19921;-76
2021/01/13 03:18:34;;;;;;;;;;;3.00;78.70;;;;;;4970417;28;20321;-76
2021/01/13 03:21:06;;;;;;;;;;;2.90;78.80;;;;;;4976940;28;19984;-76
2021/01/13 03:23:35;;;;;;;;;;;2.90;78.80;;;;;;4967323;28;20601;-76
2021/01/13 03:26:02;;;;;;;;;;;2.90;78.80;;;;;;4982067;28;19938;-76
2021/01/13 03:28:32;;;;;;;;;;;2.90;78.70;;;;;;4978849;28;19936;-76
2021/01/13 03:30:59;;;;;;;;;;;2.90;78.70;;;;;;4980342;28;19933;-76
2021/01/13 03:33:38;;;;;;;;;;;2.90;78.80;;;;;;4985166;28;19967;-76
2021/01/13 03:36:23;;;;;;;;;;;2.90;78.70;;;;;;4976345;28;19926;-76
2021/01/13 03:39:08;;;;;;;;;;;2.90;78.50;;;;;;4974288;28;19937;-76
2021/01/13 03:41:53;;;;;;;;;;;2.90;78.70;;;;;;4980153;28;20004;-76
2021/01/13 03:44:25;;;;;;;;;;;2.80;78.80;;;;;;4980667;28;19926;-76
2021/01/13 03:46:52;;;;;;;;;;;2.80;78.80;;;;;;4985373;28;20016;-77
2021/01/13 03:49:20;;;;;;;;;;;2.80;78.80;;;;;;4975495;28;19926;-76
2021/01/13 03:52:06;;;;;;;;;;;2.80;78.70;;;;;;4983870;28;20050;-76
2021/01/13 03:54:34;;;;;;;;;;;2.80;78.60;;;;;;4980522;28;20012;-76
2021/01/13 03:57:02;;;;;;;;;;;2.90;78.40;;;;;;4984743;28;19932;-76
2021/01/13 03:59:41;;;;;;;;;;;2.90;78.40;;;;;;4976676;28;19930;-76
2021/01/13 04:02:07;;;;;;;;;;;2.90;78.40;;;;;;4982923;28;20303;-76
2021/01/13 04:04:42;;;;;;;;;;;2.90;78.40;;;;;;4980514;28;19939;-76
2021/01/13 04:07:09;;;;;;;;;;;2.80;78.30;;;;;;4978222;28;20425;-76
2021/01/13 04:09:35;;;;;;;;;;;2.80;78.30;;;;;;4977175;28;19951;-76
2021/01/13 04:12:08;;;;;;;;;;;2.90;78.30;;;;;;4963523;28;19930;-76
2021/01/13 04:14:46;;;;;;;;;;;2.90;78.20;;;;;;4964182;28;19948;-76
2021/01/13 04:17:13;;;;;;;;;;;2.90;78.10;;;;;;4962048;28;19969;-76
2021/01/13 04:19:40;;;;;;;;;;;2.90;77.80;;;;;;4980595;28;19933;-76
2021/01/13 04:22:07;;;;;;;;;;;3.00;77.70;;;;;;4980452;28;20301;-76
2021/01/13 04:24:33;;;;;;;;;;;3.00;77.60;;;;;;4981596;28;20009;-76
2021/01/13 04:27:00;;;;;;;;;;;3.00;77.60;;;;;;4965149;28;20365;-76
2021/01/13 04:29:27;;;;;;;;;;;2.90;77.60;;;;;;4976044;28;19940;-76
2021/01/13 04:31:53;;;;;;;;;;;2.90;77.60;;;;;;4966135;28;19970;-76
2021/01/13 04:34:20;;;;;;;;;;;2.90;77.70;;;;;;4976739;28;20397;-76
2021/01/13 04:36:49;;;;;;;;;;;2.90;77.80;;;;;;4983646;28;19926;-76
2021/01/13 04:39:18;;;;;;;;;;;2.90;77.60;;;;;;4983284;28;19934;-76
2021/01/13 04:42:11;;;;;;;;;;;2.80;77.80;;;;;;4980531;28;19932;-76
2021/01/13 04:44:45;;;;;;;;;;;2.80;77.90;;;;;;4979883;28;20271;-76
2021/01/13 04:47:11;;;;;;;;;;;2.80;77.70;;;;;;4980331;28;20341;-76
2021/01/13 04:49:38;;;;;;;;;;;2.80;77.80;;;;;;4969413;28;20414;-76
2021/01/13 04:52:18;;;;;;;;;;;2.80;77.80;;;;;;4966600;28;19926;-76
2021/01/13 04:54:46;;;;;;;;;;;2.70;77.80;;;;;;4979440;28;19940;-76
2021/01/13 04:57:38;;;;;;;;;;;2.70;77.70;;;;;;4980504;28;19934;-76
2021/01/13 05:00:11;;;;;;;;;;;2.80;77.60;;;;;;4982005;28;19926;-76
2021/01/13 05:02:40;;;;;;;;;;;2.70;77.70;;;;;;4982928;28;19930;-76
2021/01/13 05:05:07;;;;;;;;;;;2.70;77.80;;;;;;4983283;28;19937;-76
2021/01/13 05:07:34;;;;;;;;;;;2.70;77.70;;;;;;4991061;28;19940;-76
2021/01/13 05:10:03;;;;;;;;;;;2.70;77.70;;;;;;5003772;28;19985;-76
2021/01/13 05:12:50;;;;;;;;;;;2.70;77.40;;;;;;4987171;28;19937;-76
2021/01/13 05:15:17;;;;;;;;;;;2.70;77.50;;;;;;4962057;28;19933;-77
2021/01/13 05:18:05;;;;;;;;;;;2.70;77.50;;;;;;4982329;28;20013;-76
2021/01/13 05:20:39;;;;;;;;;;;2.70;77.80;;;;;;4988221;28;19926;-76
2021/01/13 05:23:06;;;;;;;;;;;2.60;77.90;;;;;;4987127;28;19945;-76
2021/01/13 05:25:43;;;;;;;;;;;2.60;78.00;;;;;;4984878;28;20263;-76
2021/01/13 05:28:11;;;;;;;;;;;2.60;77.90;;;;;;4984875;28;19937;-76
2021/01/13 05:30:38;;;;;;;;;;;2.60;78.10;;;;;;4969022;28;19926;-76
2021/01/13 05:33:06;;;;;;;;;;;2.60;77.90;;;;;;4988501;28;24334;-76
2021/01/13 05:35:34;;;;;;;;;;;2.60;78.00;;;;;;4985872;28;19925;-76
2021/01/13 05:38:04;;;;;;;;;;;2.60;77.90;;;;;;4990229;28;19926;-76
2021/01/13 05:40:31;;;;;;;;;;;2.60;78.10;;;;;;4984425;28;19929;-76
2021/01/13 05:42:59;;;;;;;;;;;2.60;78.10;;;;;;4985157;28;19925;-76
2021/01/13 05:45:26;;;;;;;;;;;2.60;78.00;;;;;;4970701;28;19960;-76
2021/01/13 05:47:53;;;;;;;;;;;2.60;78.10;;;;;;4970657;28;19929;-76
2021/01/13 05:50:21;;;;;;;;;;;2.60;78.00;;;;;;4977258;28;20044;-75
2021/01/13 05:52:47;;;;;;;;;;;2.60;78.00;;;;;;4977547;28;19926;-76
2021/01/13 05:55:15;;;;;;;;;;;2.60;78.00;;;;;;4983489;28;20060;-76
2021/01/13 05:57:57;;;;;;;;;;;2.60;78.00;;;;;;4982662;28;20020;-76
2021/01/13 06:00:25;;;;;;;;;;;2.50;78.00;;;;;;4982016;28;19934;-76
2021/01/13 06:02:55;;;;;;;;;;;2.50;78.40;;;;;;4985065;28;19968;-76
2021/01/13 06:05:22;;;;;;;;;;;2.50;78.50;;;;;;4976794;28;20012;-76
2021/01/13 06:07:51;;;;;;;;;;;2.50;78.60;;;;;;4980010;28;19926;-76
2021/01/13 06:10:18;;;;;;;;;;;2.50;78.60;;;;;;4985601;28;20004;-76
2021/01/13 06:12:46;;;;;;;;;;;2.60;78.50;;;;;;4986875;28;20021;-76
2021/01/13 06:15:13;;;;;;;;;;;2.60;78.40;;;;;;4967012;28;20020;-76
2021/01/13 06:17:48;;;;;;;;;;;2.60;78.40;;;;;;4980009;28;19965;-76
2021/01/13 06:20:16;;;;;;;;;;;2.70;78.00;;;;;;4983117;28;20285;-76
2021/01/13 06:22:46;;;;;;;;;;;2.70;78.00;;;;;;4985530;28;19926;-76
2021/01/13 06:25:12;;;;;;;;;;;2.70;78.00;;;;;;4956972;28;19933;-76
2021/01/13 06:27:57;;;;;;;;;;;2.60;77.90;;;;;;4967291;28;20014;-76
2021/01/13 06:30:27;;;;;;;;;;;2.70;77.80;;;;;;4984011;28;19968;-76
2021/01/13 06:32:57;;;;;;;;;;;2.70;77.80;;;;;;4982691;28;19940;-76
2021/01/13 06:35:23;;;;;;;;;;;2.70;77.70;;;;;;4981219;28;20032;-76
2021/01/13 06:37:51;;;;;;;;;;;2.70;77.80;;;;;;4982542;28;19933;-76
2021/01/13 06:40:19;;;;;;;;;;;2.70;77.70;;;;;;4980954;28;19936;-76
2021/01/13 06:42:45;;;;;;;;;;;2.70;77.60;;;;;;4970267;28;19933;-76
2021/01/13 06:45:12;;;;;;;;;;;2.60;77.70;;;;;;4986164;28;19930;-76
2021/01/13 06:47:53;;;;;;;;;;;2.60;77.90;;;;;;4970963;28;19938;-76
2021/01/13 06:50:40;;;;;;;;;;;2.70;77.80;;;;;;4984917;28;19925;-76
2021/01/13 06:53:10;;;;;;;;;;;2.60;78.00;;;;;;4979100;28;19932;-76
2021/01/13 06:55:40;;;;;;;;;;;2.60;78.10;;;;;;4982131;28;19929;-76
2021/01/13 06:58:13;;;;;;;;;;;2.60;78.20;;;;;;4987749;28;19925;-76
2021/01/13 07:00:41;;;;;;;;;;;2.70;78.10;;;;;;4993927;28;20367;-76
2021/01/13 07:03:27;;;;;;;;;;;2.70;78.20;;;;;;4990235;28;19925;-76
2021/01/13 07:05:53;;;;;;;;;;;2.70;78.20;;;;;;4962697;28;19951;-76
2021/01/13 07:08:20;;;;;;;;;;;2.70;78.40;;;;;;4981339;28;19926;-75
2021/01/13 07:10:47;;;;;;;;;;;2.70;78.40;;;;;;4981179;28;20331;-76
2021/01/13 07:13:17;;;;;;;;;;;2.70;78.40;;;;;;4963038;28;20364;-76
2021/01/13 07:15:44;;;;;;;;;;;2.70;78.60;;;;;;4980523;28;19926;-77
2021/01/13 07:18:11;;;;;;;;;;;2.70;78.80;;;;;;4981475;28;19933;-76
2021/01/13 07:20:43;;;;;;;;;;;2.80;78.70;;;;;;4981146;28;19929;-76
2021/01/13 07:23:09;;;;;;;;;;;2.80;78.60;;;;;;4981061;28;19966;-76
2021/01/13 07:25:43;;;;;;;;;;;2.80;78.40;;;;;;4981679;28;20009;-76
2021/01/13 07:28:09;;;;;;;;;;;2.90;78.40;;;;;;4981115;28;19934;-76
2021/01/13 07:30:35;;;;;;;;;;;2.90;78.50;;;;;;4966068;28;19937;-76
2021/01/13 07:33:06;;;;;;;;;;;2.90;78.60;;;;;;4959994;28;20508;-76
2021/01/13 07:35:33;;;;;;;;;;;2.90;78.50;;;;;;4987846;28;19932;-76
2021/01/13 07:38:01;;;;;;;;;;;2.90;78.60;;;;;;4981846;28;19929;-76
2021/01/13 07:40:30;;;;;;;;;;;2.80;78.40;;;;;;4978536;28;19952;-75
2021/01/13 07:43:02;;;;;;;;;;;2.80;78.60;;;;;;4969222;28;19953;-76
2021/01/13 07:45:29;;;;;;;;;;;2.90;78.60;;;;;;4967371;28;20036;-78
2021/01/13 07:47:55;;;;;;;;;;;2.90;78.60;;;;;;4982575;28;19930;-78
2021/01/13 07:50:22;;;;;;;;;;;2.80;78.70;;;;;;4983423;28;19926;-78
2021/01/13 07:52:50;;;;;;;;;;;2.80;78.90;;;;;;4985643;28;19932;-78
2021/01/13 07:55:17;;;;;;;;;;;2.80;79.10;;;;;;4980825;28;19933;-79
2021/01/13 07:57:48;;;;;;;;;;;2.80;79.30;;;;;;4982189;28;20021;-78
2021/01/13 08:00:25;;;;;;;;;;;2.80;79.30;;;;;;4978823;28;20013;-78
2021/01/13 08:03:13;;;;;;;;;;;2.80;79.40;;;;;;4979033;28;19959;-77
2021/01/13 08:05:59;;;;;;;;;;;2.80;79.30;;;;;;4975826;28;20549;-77
2021/01/13 08:08:37;;;;;;;;;;;2.80;79.80;;;;;;4967853;28;19940;-77
2021/01/13 08:11:05;;;;;;;;;;;2.80;79.80;;;;;;4981231;28;19932;-76
2021/01/13 08:13:31;;;;;;;;;;;2.90;79.80;;;;;;4977661;28;19926;-76
2021/01/13 08:16:13;;;;;;;;;;;2.90;79.90;;;;;;4979492;28;20009;-76
2021/01/13 08:18:50;;;;;;;;;;;3.00;79.90;;;;;;4978936;28;20259;-77
2021/01/13 08:21:34;;;;;;;;;;;3.00;79.90;;;;;;4980004;28;20028;-76
2021/01/13 08:24:15;;;;;;;;;;;3.00;79.80;;;;;;4985559;28;19926;-77
2021/01/13 08:26:41;;;;;;;;;;;3.10;79.80;;;;;;4962505;28;20008;-76
2021/01/13 08:29:16;;;;;;;;;;;3.10;79.70;;;;;;4977003;28;19930;-77
2021/01/13 08:31:47;;;;;;;;;;;3.10;79.40;;;;;;4976229;28;19932;-77
2021/01/13 08:34:13;;;;;;;;;;;3.10;79.40;;;;;;4958493;28;19926;-76
2021/01/13 08:36:51;;;;;;;;;;;3.10;79.20;;;;;;4980560;28;19926;-77
2021/01/13 08:39:25;;;;;;;;;;;3.20;79.20;;;;;;4979278;28;19925;-76
2021/01/13 08:41:52;;;;;;;;;;;3.10;79.10;;;;;;4972187;28;19930;-76
2021/01/13 08:44:18;;;;;;;;;;;3.10;79.20;;;;;;4961118;28;19926;-76
2021/01/13 08:46:44;;;;;;;;;;;3.10;79.30;;;;;;4969246;28;20321;-76
2021/01/13 08:49:19;;;;;;;;;;;3.10;79.30;;;;;;4978116;28;19926;-76
2021/01/13 08:52:04;;;;;;;;;;;3.10;79.10;;;;;;4984796;28;19926;-77
2021/01/13 08:54:31;;;;;;;;;;;3.10;79.10;;;;;;4994246;28;19929;-77
2021/01/13 08:57:01;;;;;;;;;;;3.10;79.30;;;;;;5004751;28;19949;-76
2021/01/13 08:59:33;;;;;;;;;;;3.20;79.30;;;;;;4982621;28;20044;-76
2021/01/13 09:02:05;;;;;;;;;;;3.20;79.20;;;;;;4981222;28;19926;-76
2021/01/13 09:04:41;;;;;;;;;;;3.30;79.20;;;;;;4981402;28;19933;-76
2021/01/13 09:07:15;;;;;;;;;;;3.30;79.20;;;;;;4975499;28;19948;-76
2021/01/13 09:09:43;;;;;;;;;;;3.30;79.20;;;;;;4985341;28;20361;-76
2021/01/13 09:12:28;;;;;;;;;;;3.30;78.70;;;;;;4979042;28;20004;-77
2021/01/13 09:15:14;;;;;;;;;;;3.40;78.90;;;;;;4963674;28;19930;-76
2021/01/13 09:17:51;;;;;;;;;;;3.40;78.60;;;;;;4968624;28;20437;-76
2021/01/13 09:20:17;;;;;;;;;;;3.50;78.60;;;;;;4960657;28;19969;-76
2021/01/13 09:22:47;;;;;;;;;;;3.50;78.80;;;;;;4985104;28;20882;-76
2021/01/13 09:25:20;;;;;;;;;;;3.50;78.70;;;;;;4981569;28;19934;-76
2021/01/13 09:27:50;;;;;;;;;;;3.60;78.70;;;;;;4984421;28;19985;-77
2021/01/13 09:30:22;;;;;;;;;;;3.60;78.60;;;;;;4984160;28;20384;-76
2021/01/13 09:32:52;;;;;;;;;;;3.70;78.50;;;;;;4980969;28;19926;-77
2021/01/13 09:35:25;;;;;;;;;;;3.70;78.50;;;;;;4984039;28;19925;-76
2021/01/13 09:37:52;;;;;;;;;;;3.70;78.60;;;;;;4977918;28;20453;-76
2021/01/13 09:40:21;;;;;;;;;;;3.90;77.80;;;;;;4981597;28;20020;-76
2021/01/13 09:42:54;;;;;;;;;;;3.90;77.90;;;;;;4986123;28;19965;-75
2021/01/13 09:45:22;;;;;;;;;;;3.90;77.50;;;;;;4983741;28;20441;-75
2021/01/13 09:47:48;;;;;;;;;;;4.00;77.80;;;;;;4963994;28;20021;-75
2021/01/13 09:50:19;;;;;;;;;;;4.10;77.30;;;;;;4979315;28;19941;-76
2021/01/13 09:52:48;;;;;;;;;;;4.20;77.30;;;;;;4978592;28;20310;-77
2021/01/13 09:55:17;;;;;;;;;;;4.30;77.10;;;;;;4969153;28;20346;-77
2021/01/13 09:57:44;;;;;;;;;;;4.30;76.80;;;;;;4975952;28;20029;-77
2021/01/13 10:00:12;;;;;;;;;;;4.40;76.20;;;;;;4966197;28;20297;-76
2021/01/13 10:02:38;;;;;;;;;;;4.50;75.40;;;;;;4966716;28;19948;-77
2021/01/13 10:05:06;;;;;;;;;;;4.60;75.20;;;;;;4982056;28;20345;-77
2021/01/13 10:07:36;;;;;;;;;;;4.70;75.30;;;;;;4982870;28;19925;-77
2021/01/13 10:10:06;;;;;;;;;;;4.80;74.70;;;;;;4978908;28;19926;-79
2021/01/13 10:12:40;;;;;;;;;;;4.90;74.40;;;;;;4986450;28;20492;-77
2021/01/13 10:15:13;;;;;;;;;;;5.00;74.30;;;;;;4961515;28;20765;-78
2021/01/13 10:17:41;;;;;;;;;;;5.10;74.20;;;;;;4981787;28;19938;-78
2021/01/13 10:20:10;;;;;;;;;;;5.10;73.40;;;;;;4979952;28;19934;-77
2021/01/13 10:22:38;;;;;;;;;;;5.20;73.80;;;;;;4986039;28;19932;-79
2021/01/13 10:25:04;;;;;;;;;;;5.20;73.20;;;;;;4972188;28;20332;-79
2021/01/13 10:27:31;;;;;;;;;;;5.20;73.00;;;;;;4985484;28;19945;-77
2021/01/13 10:29:59;;;;;;;;;;;5.10;73.00;;;;;;4968295;28;20423;-78
2021/01/13 10:32:25;;;;;;;;;;;5.10;73.00;;;;;;4965320;28;20585;-77
2021/01/13 10:34:53;;;;;;;;;;;5.00;73.10;;;;;;4977047;28;19933;-78
2021/01/13 10:37:20;;;;;;;;;;;5.00;73.50;;;;;;4981224;28;19932;-78
2021/01/13 10:39:47;;;;;;;;;;;5.00;73.70;;;;;;4966066;28;19926;-78
2021/01/13 10:42:13;;;;;;;;;;;5.00;73.20;;;;;;4990773;28;20366;-79
2021/01/13 10:44:40;;;;;;;;;;;5.00;73.80;;;;;;4981066;28;19926;-79
2021/01/13 10:47:08;;;;;;;;;;;5.00;73.90;;;;;;4983054;28;19926;-79
2021/01/13 10:49:35;;;;;;;;;;;5.00;73.40;;;;;;4977506;28;19930;-79
2021/01/13 10:52:04;;;;;;;;;;;5.00;73.50;;;;;;4994871;28;19934;-80
2021/01/13 10:54:32;;;;;;;;;;;5.00;73.20;;;;;;4994093;28;19934;-78
2021/01/13 10:56:59;;;;;;;;;;;5.10;72.90;;;;;;4971140;28;20671;-78
2021/01/13 10:59:28;;;;;;;;;;;5.10;72.80;;;;;;4984471;28;20358;-78
2021/01/13 11:01:58;;;;;;;;;;;5.10;72.20;;;;;;4964166;28;20306;-79
2021/01/13 11:04:30;;;;;;;;;;;5.20;72.60;;;;;;4974684;28;19926;-78
2021/01/13 11:07:07;;;;;;;;;;;5.20;71.80;;;;;;4964755;28;19926;-79
2021/01/13 11:09:43;;;;;;;;;;;5.30;72.10;;;;;;4985142;28;19944;-78
2021/01/13 11:12:10;;;;;;;;;;;5.40;72.20;;;;;;4967013;28;19932;-78
2021/01/13 11:14:40;;;;;;;;;;;5.40;71.50;;;;;;4985869;28;19926;-79
2021/01/13 11:17:09;;;;;;;;;;;5.40;71.40;;;;;;4978121;28;19957;-79
2021/01/13 11:19:36;;;;;;;;;;;5.50;72.10;;;;;;4982142;28;19953;-78
2021/01/13 11:22:03;;;;;;;;;;;5.60;71.10;;;;;;4988062;28;19953;-80
2021/01/13 11:24:36;;;;;;;;;;;5.60;70.60;;;;;;4983240;28;19953;-78
2021/01/13 11:27:06;;;;;;;;;;;5.60;71.00;;;;;;4985007;28;19930;-78
2021/01/13 11:29:35;;;;;;;;;;;5.70;71.10;;;;;;4984223;28;19976;-78
2021/01/13 11:32:02;;;;;;;;;;;5.70;71.30;;;;;;4982543;28;20272;-78
2021/01/13 11:34:28;;;;;;;;;;;5.80;70.90;;;;;;4986008;28;20437;-78
2021/01/13 11:37:10;;;;;;;;;;;5.80;70.60;;;;;;4986423;28;19930;-78
2021/01/13 11:39:49;;;;;;;;;;;5.80;70.40;;;;;;4985027;28;19929;-78
2021/01/13 11:42:21;;;;;;;;;;;5.70;70.80;;;;;;4980807;28;19926;-78
2021/01/13 11:44:50;;;;;;;;;;;5.70;70.70;;;;;;4965556;28;19926;-78
2021/01/13 11:47:31;;;;;;;;;;;5.80;71.10;;;;;;4983935;28;20125;-78
2021/01/13 11:50:01;;;;;;;;;;;5.80;70.80;;;;;;4979001;28;19994;-78
2021/01/13 11:52:34;;;;;;;;;;;5.70;70.40;;;;;;4986935;28;19980;-79
2021/01/13 11:55:01;;;;;;;;;;;5.70;70.10;;;;;;4981399;28;19950;-79
2021/01/13 11:57:28;;;;;;;;;;;5.70;69.70;;;;;;4979535;28;19934;-79
2021/01/13 12:00:13;;;;;;;;;;;5.70;69.90;;;;;;4987932;28;19933;-78
2021/01/13 12:02:40;;;;;;;;;;;5.70;69.80;;;;;;4983277;28;19957;-78
2021/01/13 12:05:08;;;;;;;;;;;5.60;69.90;;;;;;4979860;28;20861;-78
2021/01/13 12:07:35;;;;;;;;;;;5.60;70.20;;;;;;4969226;28;20660;-78
2021/01/13 12:10:07;;;;;;;;;;;5.70;70.60;;;;;;4980441;28;20013;-78
2021/01/13 12:12:34;;;;;;;;;;;5.70;70.00;;;;;;4973301;28;19925;-78
2021/01/13 12:15:10;;;;;;;;;;;5.80;70.10;;;;;;4966053;28;20203;-79
2021/01/13 12:17:48;;;;;;;;;;;5.80;69.60;;;;;;4962303;28;19932;-79
2021/01/13 12:20:32;;;;;;;;;;;5.90;68.90;;;;;;4983473;28;19992;-79
2021/01/13 12:23:13;;;;;;;;;;;5.90;68.50;;;;;;4984406;28;19956;-79
2021/01/13 12:25:39;;;;;;;;;;;5.90;68.00;;;;;;4986584;28;19926;-78
2021/01/13 12:28:06;;;;;;;;;;;5.80;68.80;;;;;;4987829;28;19940;-79
2021/01/13 12:30:32;;;;;;;;;;;5.80;68.80;;;;;;4966815;28;20012;-79
2021/01/13 12:33:00;;;;;;;;;;;5.80;68.90;;;;;;4968461;28;19926;-79
2021/01/13 12:35:28;;;;;;;;;;;5.80;69.00;;;;;;4986116;28;19934;-79
2021/01/13 12:37:54;;;;;;;;;;;5.80;67.40;;;;;;4969308;28;19926;-79
2021/01/13 12:40:29;;;;;;;;;;;5.80;66.70;;;;;;4969959;28;19941;-79
2021/01/13 12:43:09;;;;;;;;;;;5.70;67.30;;;;;;4987189;28;19933;-79
2021/01/13 12:45:36;;;;;;;;;;;5.80;67.10;;;;;;4985162;28;19934;-79
2021/01/13 12:48:04;;;;;;;;;;;5.90;67.50;;;;;;4968836;28;19985;-79
2021/01/13 12:50:30;;;;;;;;;;;5.90;66.60;;;;;;4972603;28;19929;-79
2021/01/13 12:52:58;;;;;;;;;;;5.90;67.10;;;;;;4989603;28;19933;-79
2021/01/13 12:55:28;;;;;;;;;;;5.90;66.80;;;;;;4997664;28;19936;-79
2021/01/13 12:57:55;;;;;;;;;;;5.90;67.00;;;;;;4978571;28;20046;-80
2021/01/13 13:00:22;;;;;;;;;;;5.90;66.50;;;;;;4984350;28;20382;-79
2021/01/13 13:02:49;;;;;;;;;;;5.90;67.20;;;;;;4987023;28;19930;-81
2021/01/13 13:05:16;;;;;;;;;;;5.90;67.00;;;;;;4967872;28;20398;-79
2021/01/13 13:07:42;;;;;;;;;;;5.90;66.80;;;;;;4966385;28;20375;-80
2021/01/13 13:10:10;;;;;;;;;;;5.90;66.60;;;;;;4980665;28;19930;-80
2021/01/13 13:12:36;;;;;;;;;;;5.80;66.30;;;;;;4962988;28;20370;-78
2021/01/13 13:15:03;;;;;;;;;;;5.70;66.60;;;;;;4982320;28;20036;-79
2021/01/13 13:17:31;;;;;;;;;;;5.70;66.60;;;;;;4981476;28;19989;-81
2021/01/13 13:19:58;;;;;;;;;;;5.60;67.10;;;;;;4969875;28;19934;-82
2021/01/13 13:22:25;;;;;;;;;;;5.60;67.60;;;;;;4971291;28;19965;-82
2021/01/13 13:24:51;;;;;;;;;;;5.60;67.90;;;;;;4968315;28;20366;-80
2021/01/13 13:27:17;;;;;;;;;;;5.60;67.30;;;;;;4973727;28;20371;-79
2021/01/13 13:29:44;;;;;;;;;;;5.50;67.60;;;;;;4983688;28;19930;-81
2021/01/13 13:32:12;;;;;;;;;;;5.60;67.50;;;;;;4970318;28;20316;-80
2021/01/13 13:34:42;;;;;;;;;;;5.60;67.70;;;;;;4973828;28;19930;-81
2021/01/13 13:37:09;;;;;;;;;;;5.70;67.50;;;;;;4981231;28;19930;-80
2021/01/13 13:39:42;;;;;;;;;;;5.70;67.50;;;;;;4964755;28;19926;-80
2021/01/13 13:42:11;;;;;;;;;;;5.70;68.00;;;;;;4969389;28;19961;-80
2021/01/13 13:44:39;;;;;;;;;;;5.70;67.80;;;;;;4988784;28;19926;-79
2021/01/13 13:47:06;;;;;;;;;;;5.70;68.00;;;;;;4978919;28;19926;-79
2021/01/13 13:49:33;;;;;;;;;;;5.80;68.00;;;;;;4989141;28;19925;-79
2021/01/13 13:51:59;;;;;;;;;;;5.90;67.70;;;;;;4985762;28;19948;-79
2021/01/13 13:54:25;;;;;;;;;;;5.90;67.60;;;;;;4964965;28;19926;-79
2021/01/13 13:56:55;;;;;;;;;;;6.00;66.80;;;;;;4967291;28;20017;-80
2021/01/13 13:59:22;;;;;;;;;;;6.00;66.40;;;;;;4972662;28;19925;-79
2021/01/13 14:01:49;;;;;;;;;;;6.00;66.70;;;;;;4976757;28;19937;-79
2021/01/13 14:04:17;;;;;;;;;;;5.90;66.10;;;;;;4989996;28;19984;-79
2021/01/13 14:06:44;;;;;;;;;;;5.90;66.50;;;;;;4982114;28;19930;-80
2021/01/13 14:09:11;;;;;;;;;;;6.00;66.30;;;;;;4965886;28;19933;-80
2021/01/13 14:11:38;;;;;;;;;;;6.00;66.30;;;;;;4974896;28;19937;-77
2021/01/13 14:14:04;;;;;;;;;;;6.00;66.20;;;;;;4985303;28;20036;-77
2021/01/13 14:16:31;;;;;;;;;;;6.00;66.00;;;;;;4972535;28;19939;-80
2021/01/13 14:18:57;;;;;;;;;;;6.00;65.90;;;;;;4986182;28;20377;-79
2021/01/13 14:21:23;;;;;;;;;;;6.00;65.30;;;;;;4983029;28;19926;-78
2021/01/13 14:23:51;;;;;;;;;;;5.90;65.30;;;;;;4978943;28;19926;-78
2021/01/13 14:26:23;;;;;;;;;;;5.90;65.70;;;;;;4965545;28;20313;-78
2021/01/13 14:28:52;;;;;;;;;;;5.80;65.60;;;;;;4969203;28;19964;-79
2021/01/13 14:31:18;;;;;;;;;;;5.70;65.80;;;;;;4970585;28;19925;-79
2021/01/13 14:33:45;;;;;;;;;;;5.70;65.80;;;;;;4968318;28;19936;-77
2021/01/13 14:36:13;;;;;;;;;;;5.60;65.90;;;;;;4984061;28;20263;-78
2021/01/13 14:38:40;;;;;;;;;;;5.60;66.10;;;;;;4968500;28;20294;-77
2021/01/13 14:41:08;;;;;;;;;;;5.50;66.10;;;;;;4985329;28;19941;-78
2021/01/13 14:43:37;;;;;;;;;;;5.50;66.30;;;;;;4987472;28;19933;-79
2021/01/13 14:46:07;;;;;;;;;;;5.50;66.90;;;;;;4983948;28;20016;-78
2021/01/13 14:48:35;;;;;;;;;;;5.40;67.10;;;;;;4988578;28;19933;-78